KMWH/MWH METAR and TAF weather

Enter ICAO airport designator
Station Type Date Time Source
KMWH METAR 2022/01/29 10:52 UTC NOAA

KMWH 291052Z AUTO 33003KT 10SM OVC017 M03/M04 A3044 RMK AO2 SLP324 T10281044


Station Type Date Time Source
KMWH Decoded METAR 2022/01/29 10:52 UTC NOAA

GRANT COUNTY AIRPORT, WA, United States (KMWH) 47-12N 119-19W 362M
Jan 29, 2022 - 05:52 AM EST / 2022.01.29 1052 UTC
Wind: from the NNW (330 degrees) at 3 MPH (3 KT):0
Visibility: 10 mile(s):0
Sky conditions: overcast
Temperature: 27.0 F (-2.8 C)
Dew Point: 24.1 F (-4.4 C)
Relative Humidity: 88%
Pressure (altimeter): 30.44 in. Hg (1030 hPa)
ob: KMWH 291052Z AUTO 33003KT 10SM OVC017 M03/M04 A3044 RMK AO2 SLP324 T10281044
cycle: 11

Station Type Date Time Source
KMWH TAF 2022/01/29 06:33 UTC NOAA

TAF KMWH 290531Z 2906/3006 VRB03KT P6SM OVC016

Example: see airport list